sensor_id;sensor_type;location;lat;lon;timestamp;P1;durP1;ratioP1;P2;durP2;ratioP2
8482;SDS011;4278;42.668;23.312;2023-11-18T00:00:47;1.07;;;0.90;;
8482;SDS011;4278;42.668;23.312;2023-11-18T00:03:14;1.70;;;1.13;;
8482;SDS011;4278;42.668;23.312;2023-11-18T00:05:41;1.20;;;1.10;;
8482;SDS011;4278;42.668;23.312;2023-11-18T00:08:09;0.83;;;0.83;;
8482;SDS011;4278;42.668;23.312;2023-11-18T00:10:36;1.20;;;1.10;;
8482;SDS011;4278;42.668;23.312;2023-11-18T00:13:03;0.93;;;0.93;;
8482;SDS011;4278;42.668;23.312;2023-11-18T00:15:30;1.13;;;1.03;;
8482;SDS011;4278;42.668;23.312;2023-11-18T00:17:59;1.37;;;1.00;;
8482;SDS011;4278;42.668;23.312;2023-11-18T00:20:26;1.17;;;1.10;;
8482;SDS011;4278;42.668;23.312;2023-11-18T00:22:56;0.90;;;0.90;;
8482;SDS011;4278;42.668;23.312;2023-11-18T00:25:24;1.83;;;1.23;;
8482;SDS011;4278;42.668;23.312;2023-11-18T00:27:51;0.70;;;0.70;;
8482;SDS011;4278;42.668;23.312;2023-11-18T00:30:18;0.80;;;0.80;;
8482;SDS011;4278;42.668;23.312;2023-11-18T00:32:45;0.90;;;0.80;;
8482;SDS011;4278;42.668;23.312;2023-11-18T00:35:13;0.90;;;0.90;;
8482;SDS011;4278;42.668;23.312;2023-11-18T00:37:39;0.90;;;0.90;;
8482;SDS011;4278;42.668;23.312;2023-11-18T00:40:07;0.77;;;0.77;;
8482;SDS011;4278;42.668;23.312;2023-11-18T00:42:36;1.30;;;1.20;;
8482;SDS011;4278;42.668;23.312;2023-11-18T00:45:03;1.30;;;1.20;;
8482;SDS011;4278;42.668;23.312;2023-11-18T00:47:31;1.03;;;1.03;;
8482;SDS011;4278;42.668;23.312;2023-11-18T00:49:58;1.37;;;1.27;;
8482;SDS011;4278;42.668;23.312;2023-11-18T00:52:27;1.17;;;1.00;;
8482;SDS011;4278;42.668;23.312;2023-11-18T00:54:53;1.23;;;1.20;;
8482;SDS011;4278;42.668;23.312;2023-11-18T00:57:20;1.30;;;1.20;;
8482;SDS011;4278;42.668;23.312;2023-11-18T00:59:49;1.83;;;1.43;;
8482;SDS011;4278;42.668;23.312;2023-11-18T01:02:15;1.40;;;1.30;;
8482;SDS011;4278;42.668;23.312;2023-11-18T01:04:43;1.00;;;1.00;;
8482;SDS011;4278;42.668;23.312;2023-11-18T01:07:11;1.33;;;1.23;;
8482;SDS011;4278;42.668;23.312;2023-11-18T01:09:37;1.50;;;1.40;;
8482;SDS011;4278;42.668;23.312;2023-11-18T01:12:05;1.73;;;1.23;;
8482;SDS011;4278;42.668;23.312;2023-11-18T01:14:35;1.20;;;1.10;;
8482;SDS011;4278;42.668;23.312;2023-11-18T01:17:04;1.40;;;1.30;;
8482;SDS011;4278;42.668;23.312;2023-11-18T01:19:31;1.23;;;1.17;;
8482;SDS011;4278;42.668;23.312;2023-11-18T01:21:59;1.47;;;1.30;;
8482;SDS011;4278;42.668;23.312;2023-11-18T01:24:26;1.80;;;1.40;;
8482;SDS011;4278;42.668;23.312;2023-11-18T01:26:53;1.00;;;1.00;;
8482;SDS011;4278;42.668;23.312;2023-11-18T01:29:20;2.03;;;1.60;;
8482;SDS011;4278;42.668;23.312;2023-11-18T01:31:47;1.73;;;1.63;;
8482;SDS011;4278;42.668;23.312;2023-11-18T01:34:15;1.90;;;1.80;;
8482;SDS011;4278;42.668;23.312;2023-11-18T01:36:43;3.83;;;1.43;;
8482;SDS011;4278;42.668;23.312;2023-11-18T01:39:10;1.43;;;1.33;;
8482;SDS011;4278;42.668;23.312;2023-11-18T01:41:38;2.00;;;1.60;;
8482;SDS011;4278;42.668;23.312;2023-11-18T01:44:05;1.73;;;1.60;;
8482;SDS011;4278;42.668;23.312;2023-11-18T01:46:33;1.90;;;1.70;;
8482;SDS011;4278;42.668;23.312;2023-11-18T01:49:01;1.60;;;1.50;;
8482;SDS011;4278;42.668;23.312;2023-11-18T01:51:30;1.53;;;1.43;;
8482;SDS011;4278;42.668;23.312;2023-11-18T01:54:00;1.67;;;1.57;;
8482;SDS011;4278;42.668;23.312;2023-11-18T01:56:30;1.90;;;1.80;;
8482;SDS011;4278;42.668;23.312;2023-11-18T01:58:58;1.50;;;1.40;;
8482;SDS011;4278;42.668;23.312;2023-11-18T02:01:25;1.60;;;1.50;;
8482;SDS011;4278;42.668;23.312;2023-11-18T02:03:54;2.20;;;1.70;;
8482;SDS011;4278;42.668;23.312;2023-11-18T02:06:20;2.37;;;1.57;;
8482;SDS011;4278;42.668;23.312;2023-11-18T02:08:49;1.47;;;1.37;;
8482;SDS011;4278;42.668;23.312;2023-11-18T02:11:17;1.33;;;1.23;;
8482;SDS011;4278;42.668;23.312;2023-11-18T02:13:50;1.83;;;1.73;;
8482;SDS011;4278;42.668;23.312;2023-11-18T02:16:20;1.50;;;1.40;;
8482;SDS011;4278;42.668;23.312;2023-11-18T02:18:48;2.10;;;1.80;;
8482;SDS011;4278;42.668;23.312;2023-11-18T02:21:17;2.03;;;1.83;;
8482;SDS011;4278;42.668;23.312;2023-11-18T02:23:44;2.13;;;1.93;;
8482;SDS011;4278;42.668;23.312;2023-11-18T02:26:12;2.00;;;1.80;;
8482;SDS011;4278;42.668;23.312;2023-11-18T02:28:47;1.87;;;1.77;;
8482;SDS011;4278;42.668;23.312;2023-11-18T02:31:15;2.10;;;1.90;;
8482;SDS011;4278;42.668;23.312;2023-11-18T02:33:48;2.00;;;1.90;;
8482;SDS011;4278;42.668;23.312;2023-11-18T02:36:23;2.30;;;2.10;;
8482;SDS011;4278;42.668;23.312;2023-11-18T02:39:01;1.90;;;1.70;;
8482;SDS011;4278;42.668;23.312;2023-11-18T02:41:34;1.80;;;1.70;;
8482;SDS011;4278;42.668;23.312;2023-11-18T02:44:02;2.47;;;2.27;;
8482;SDS011;4278;42.668;23.312;2023-11-18T02:46:34;2.00;;;1.80;;
8482;SDS011;4278;42.668;23.312;2023-11-18T02:49:01;3.00;;;2.10;;
8482;SDS011;4278;42.668;23.312;2023-11-18T02:51:28;2.33;;;2.10;;
8482;SDS011;4278;42.668;23.312;2023-11-18T02:53:56;1.90;;;1.80;;
8482;SDS011;4278;42.668;23.312;2023-11-18T02:56:23;2.20;;;1.97;;
8482;SDS011;4278;42.668;23.312;2023-11-18T02:58:51;2.57;;;2.03;;
8482;SDS011;4278;42.668;23.312;2023-11-18T03:01:18;4.90;;;2.30;;
8482;SDS011;4278;42.668;23.312;2023-11-18T03:03:45;2.47;;;2.27;;
8482;SDS011;4278;42.668;23.312;2023-11-18T03:06:12;2.63;;;2.43;;
8482;SDS011;4278;42.668;23.312;2023-11-18T03:08:39;2.83;;;2.53;;
8482;SDS011;4278;42.668;23.312;2023-11-18T03:11:06;2.90;;;2.60;;
8482;SDS011;4278;42.668;23.312;2023-11-18T03:13:35;1.93;;;1.80;;
8482;SDS011;4278;42.668;23.312;2023-11-18T03:16:05;2.80;;;2.30;;
8482;SDS011;4278;42.668;23.312;2023-11-18T03:18:36;3.63;;;2.70;;
8482;SDS011;4278;42.668;23.312;2023-11-18T03:21:05;2.30;;;2.00;;
8482;SDS011;4278;42.668;23.312;2023-11-18T03:23:32;2.60;;;2.40;;
8482;SDS011;4278;42.668;23.312;2023-11-18T03:25:59;2.07;;;1.93;;
8482;SDS011;4278;42.668;23.312;2023-11-18T03:28:26;2.73;;;2.50;;
8482;SDS011;4278;42.668;23.312;2023-11-18T03:30:52;2.67;;;2.43;;
8482;SDS011;4278;42.668;23.312;2023-11-18T03:33:21;2.50;;;2.30;;
8482;SDS011;4278;42.668;23.312;2023-11-18T03:35:48;3.23;;;2.17;;
8482;SDS011;4278;42.668;23.312;2023-11-18T03:38:14;3.30;;;1.90;;
8482;SDS011;4278;42.668;23.312;2023-11-18T03:40:42;2.20;;;2.00;;
8482;SDS011;4278;42.668;23.312;2023-11-18T03:43:10;3.23;;;2.40;;
8482;SDS011;4278;42.668;23.312;2023-11-18T03:45:38;4.23;;;2.53;;
8482;SDS011;4278;42.668;23.312;2023-11-18T03:48:05;2.53;;;2.33;;
8482;SDS011;4278;42.668;23.312;2023-11-18T03:50:34;3.13;;;2.47;;
8482;SDS011;4278;42.668;23.312;2023-11-18T03:53:01;4.83;;;2.30;;
8482;SDS011;4278;42.668;23.312;2023-11-18T03:55:28;2.60;;;2.40;;
8482;SDS011;4278;42.668;23.312;2023-11-18T03:57:55;4.53;;;2.40;;
8482;SDS011;4278;42.668;23.312;2023-11-18T04:00:23;2.10;;;1.90;;
8482;SDS011;4278;42.668;23.312;2023-11-18T04:02:54;3.97;;;2.40;;
8482;SDS011;4278;42.668;23.312;2023-11-18T04:05:21;2.60;;;2.40;;
8482;SDS011;4278;42.668;23.312;2023-11-18T04:07:50;2.70;;;2.10;;
8482;SDS011;4278;42.668;23.312;2023-11-18T04:10:16;2.73;;;2.40;;
8482;SDS011;4278;42.668;23.312;2023-11-18T04:12:45;2.97;;;2.63;;
8482;SDS011;4278;42.668;23.312;2023-11-18T04:15:13;2.40;;;2.20;;
8482;SDS011;4278;42.668;23.312;2023-11-18T04:17:40;4.60;;;2.77;;
8482;SDS011;4278;42.668;23.312;2023-11-18T04:20:09;2.80;;;2.47;;
8482;SDS011;4278;42.668;23.312;2023-11-18T04:22:37;4.33;;;2.83;;
8482;SDS011;4278;42.668;23.312;2023-11-18T04:25:07;2.30;;;2.10;;
8482;SDS011;4278;42.668;23.312;2023-11-18T04:27:35;2.23;;;2.03;;
8482;SDS011;4278;42.668;23.312;2023-11-18T04:30:02;3.07;;;2.70;;
8482;SDS011;4278;42.668;23.312;2023-11-18T04:32:29;2.93;;;2.73;;
8482;SDS011;4278;42.668;23.312;2023-11-18T04:34:58;2.30;;;2.10;;
8482;SDS011;4278;42.668;23.312;2023-11-18T04:37:25;2.67;;;2.47;;
8482;SDS011;4278;42.668;23.312;2023-11-18T04:39:52;2.93;;;2.30;;
8482;SDS011;4278;42.668;23.312;2023-11-18T04:42:21;4.33;;;2.20;;
8482;SDS011;4278;42.668;23.312;2023-11-18T04:44:48;2.93;;;2.50;;
8482;SDS011;4278;42.668;23.312;2023-11-18T04:47:15;2.23;;;2.00;;
8482;SDS011;4278;42.668;23.312;2023-11-18T04:49:43;3.17;;;2.87;;
8482;SDS011;4278;42.668;23.312;2023-11-18T04:52:10;2.77;;;2.40;;
8482;SDS011;4278;42.668;23.312;2023-11-18T04:54:37;2.10;;;1.90;;
8482;SDS011;4278;42.668;23.312;2023-11-18T04:57:04;2.50;;;2.30;;
8482;SDS011;4278;42.668;23.312;2023-11-18T04:59:35;2.27;;;2.00;;
8482;SDS011;4278;42.668;23.312;2023-11-18T05:02:02;2.23;;;2.03;;
8482;SDS011;4278;42.668;23.312;2023-11-18T05:04:29;2.50;;;2.20;;
8482;SDS011;4278;42.668;23.312;2023-11-18T05:06:55;2.63;;;2.40;;
8482;SDS011;4278;42.668;23.312;2023-11-18T05:09:22;2.50;;;2.20;;
8482;SDS011;4278;42.668;23.312;2023-11-18T05:11:49;2.77;;;2.23;;
8482;SDS011;4278;42.668;23.312;2023-11-18T05:14:17;2.53;;;2.00;;
8482;SDS011;4278;42.668;23.312;2023-11-18T05:16:46;2.03;;;1.83;;
8482;SDS011;4278;42.668;23.312;2023-11-18T05:19:13;4.10;;;2.40;;
8482;SDS011;4278;42.668;23.312;2023-11-18T05:21:42;3.00;;;2.57;;
8482;SDS011;4278;42.668;23.312;2023-11-18T05:24:09;2.27;;;2.07;;
8482;SDS011;4278;42.668;23.312;2023-11-18T05:26:35;3.23;;;2.10;;
8482;SDS011;4278;42.668;23.312;2023-11-18T05:29:02;2.93;;;1.83;;
8482;SDS011;4278;42.668;23.312;2023-11-18T05:31:29;2.60;;;2.10;;
8482;SDS011;4278;42.668;23.312;2023-11-18T05:33:58;2.50;;;2.00;;
8482;SDS011;4278;42.668;23.312;2023-11-18T05:36:25;2.33;;;2.10;;
8482;SDS011;4278;42.668;23.312;2023-11-18T05:38:55;1.80;;;1.70;;
8482;SDS011;4278;42.668;23.312;2023-11-18T05:41:22;1.27;;;1.17;;
8482;SDS011;4278;42.668;23.312;2023-11-18T05:43:53;1.77;;;1.57;;
8482;SDS011;4278;42.668;23.312;2023-11-18T05:46:22;1.67;;;1.17;;
8482;SDS011;4278;42.668;23.312;2023-11-18T05:48:51;1.33;;;1.23;;
8482;SDS011;4278;42.668;23.312;2023-11-18T05:51:20;1.40;;;1.30;;
8482;SDS011;4278;42.668;23.312;2023-11-18T05:53:48;1.53;;;1.43;;
8482;SDS011;4278;42.668;23.312;2023-11-18T05:56:17;2.83;;;1.60;;
8482;SDS011;4278;42.668;23.312;2023-11-18T05:58:44;2.27;;;1.20;;
8482;SDS011;4278;42.668;23.312;2023-11-18T06:01:12;1.40;;;1.30;;
8482;SDS011;4278;42.668;23.312;2023-11-18T06:03:39;1.50;;;1.40;;
8482;SDS011;4278;42.668;23.312;2023-11-18T06:06:09;5.00;;;1.50;;
8482;SDS011;4278;42.668;23.312;2023-11-18T06:08:38;1.53;;;1.37;;
8482;SDS011;4278;42.668;23.312;2023-11-18T06:11:06;1.47;;;1.37;;
8482;SDS011;4278;42.668;23.312;2023-11-18T06:13:39;1.47;;;1.37;;
8482;SDS011;4278;42.668;23.312;2023-11-18T06:16:08;1.00;;;1.00;;
8482;SDS011;4278;42.668;23.312;2023-11-18T06:18:42;1.37;;;1.17;;
8482;SDS011;4278;42.668;23.312;2023-11-18T06:21:13;3.73;;;1.33;;
8482;SDS011;4278;42.668;23.312;2023-11-18T06:23:42;1.27;;;1.17;;
8482;SDS011;4278;42.668;23.312;2023-11-18T06:26:10;1.23;;;1.13;;
8482;SDS011;4278;42.668;23.312;2023-11-18T06:28:38;1.00;;;1.00;;
8482;SDS011;4278;42.668;23.312;2023-11-18T06:31:06;1.00;;;0.93;;
8482;SDS011;4278;42.668;23.312;2023-11-18T06:33:37;0.90;;;0.90;;
8482;SDS011;4278;42.668;23.312;2023-11-18T06:36:08;1.27;;;1.17;;
8482;SDS011;4278;42.668;23.312;2023-11-18T06:38:36;1.30;;;1.20;;
8482;SDS011;4278;42.668;23.312;2023-11-18T06:41:04;1.47;;;1.37;;
8482;SDS011;4278;42.668;23.312;2023-11-18T06:43:34;1.03;;;1.00;;
8482;SDS011;4278;42.668;23.312;2023-11-18T06:46:16;1.43;;;1.33;;
8482;SDS011;4278;42.668;23.312;2023-11-18T06:48:45;1.17;;;1.10;;
8482;SDS011;4278;42.668;23.312;2023-11-18T06:51:13;1.03;;;1.03;;
8482;SDS011;4278;42.668;23.312;2023-11-18T06:53:50;1.00;;;1.00;;
8482;SDS011;4278;42.668;23.312;2023-11-18T06:56:21;1.40;;;1.30;;
8482;SDS011;4278;42.668;23.312;2023-11-18T06:58:48;1.20;;;1.10;;
8482;SDS011;4278;42.668;23.312;2023-11-18T07:01:23;1.00;;;1.00;;
8482;SDS011;4278;42.668;23.312;2023-11-18T07:03:58;1.10;;;1.00;;
8482;SDS011;4278;42.668;23.312;2023-11-18T07:06:25;0.90;;;0.90;;
8482;SDS011;4278;42.668;23.312;2023-11-18T07:08:53;0.90;;;0.90;;
8482;SDS011;4278;42.668;23.312;2023-11-18T07:11:22;1.60;;;1.10;;
8482;SDS011;4278;42.668;23.312;2023-11-18T07:13:49;1.20;;;1.10;;
8482;SDS011;4278;42.668;23.312;2023-11-18T07:16:21;2.27;;;1.13;;
8482;SDS011;4278;42.668;23.312;2023-11-18T07:18:49;1.83;;;0.90;;
8482;SDS011;4278;42.668;23.312;2023-11-18T07:21:16;1.00;;;0.93;;
8482;SDS011;4278;42.668;23.312;2023-11-18T07:23:43;1.13;;;1.03;;
8482;SDS011;4278;42.668;23.312;2023-11-18T07:26:10;1.00;;;0.90;;
8482;SDS011;4278;42.668;23.312;2023-11-18T07:28:40;1.03;;;1.00;;
8482;SDS011;4278;42.668;23.312;2023-11-18T07:31:09;0.80;;;0.80;;
8482;SDS011;4278;42.668;23.312;2023-11-18T07:33:36;1.23;;;1.03;;
8482;SDS011;4278;42.668;23.312;2023-11-18T07:36:03;1.20;;;1.10;;
8482;SDS011;4278;42.668;23.312;2023-11-18T07:38:31;0.70;;;0.70;;
8482;SDS011;4278;42.668;23.312;2023-11-18T07:41:00;2.00;;;1.10;;
8482;SDS011;4278;42.668;23.312;2023-11-18T07:43:28;0.90;;;0.90;;
8482;SDS011;4278;42.668;23.312;2023-11-18T07:45:56;0.83;;;0.83;;
8482;SDS011;4278;42.668;23.312;2023-11-18T07:48:23;1.20;;;1.10;;
8482;SDS011;4278;42.668;23.312;2023-11-18T07:50:50;1.47;;;1.27;;
8482;SDS011;4278;42.668;23.312;2023-11-18T07:53:17;1.23;;;1.13;;
8482;SDS011;4278;42.668;23.312;2023-11-18T07:55:44;1.20;;;1.10;;
8482;SDS011;4278;42.668;23.312;2023-11-18T07:58:13;1.33;;;1.00;;
8482;SDS011;4278;42.668;23.312;2023-11-18T08:00:39;1.13;;;1.07;;
8482;SDS011;4278;42.668;23.312;2023-11-18T08:03:09;1.20;;;1.10;;
8482;SDS011;4278;42.668;23.312;2023-11-18T08:05:38;1.97;;;1.17;;
8482;SDS011;4278;42.668;23.312;2023-11-18T08:08:05;1.43;;;1.00;;
8482;SDS011;4278;42.668;23.312;2023-11-18T08:10:33;1.10;;;1.00;;
8482;SDS011;4278;42.668;23.312;2023-11-18T08:13:03;1.03;;;1.00;;
8482;SDS011;4278;42.668;23.312;2023-11-18T08:15:30;1.77;;;0.93;;
8482;SDS011;4278;42.668;23.312;2023-11-18T08:17:57;1.30;;;1.17;;
8482;SDS011;4278;42.668;23.312;2023-11-18T08:20:25;1.03;;;1.00;;
8482;SDS011;4278;42.668;23.312;2023-11-18T08:22:52;1.40;;;1.30;;
8482;SDS011;4278;42.668;23.312;2023-11-18T08:25:20;1.70;;;1.40;;
8482;SDS011;4278;42.668;23.312;2023-11-18T08:27:47;2.07;;;1.37;;
8482;SDS011;4278;42.668;23.312;2023-11-18T08:30:15;1.50;;;1.20;;
8482;SDS011;4278;42.668;23.312;2023-11-18T08:32:43;1.80;;;1.70;;
8482;SDS011;4278;42.668;23.312;2023-11-18T08:35:11;4.80;;;2.83;;
8482;SDS011;4278;42.668;23.312;2023-11-18T08:37:41;4.50;;;2.77;;
8482;SDS011;4278;42.668;23.312;2023-11-18T08:40:09;3.33;;;2.30;;
8482;SDS011;4278;42.668;23.312;2023-11-18T08:42:40;3.37;;;2.70;;
8482;SDS011;4278;42.668;23.312;2023-11-18T08:45:15;2.50;;;2.13;;
8482;SDS011;4278;42.668;23.312;2023-11-18T08:47:43;3.43;;;2.10;;
8482;SDS011;4278;42.668;23.312;2023-11-18T08:50:12;2.00;;;1.80;;
8482;SDS011;4278;42.668;23.312;2023-11-18T08:52:41;4.47;;;2.00;;
8482;SDS011;4278;42.668;23.312;2023-11-18T08:55:09;2.23;;;2.03;;
8482;SDS011;4278;42.668;23.312;2023-11-18T08:57:43;2.07;;;1.87;;
8482;SDS011;4278;42.668;23.312;2023-11-18T09:00:26;2.27;;;2.07;;
8482;SDS011;4278;42.668;23.312;2023-11-18T09:03:16;2.40;;;2.00;;
8482;SDS011;4278;42.668;23.312;2023-11-18T09:05:49;2.77;;;2.17;;
8482;SDS011;4278;42.668;23.312;2023-11-18T09:08:25;2.43;;;1.97;;
8482;SDS011;4278;42.668;23.312;2023-11-18T09:10:52;4.97;;;2.93;;
8482;SDS011;4278;42.668;23.312;2023-11-18T09:13:20;3.47;;;2.30;;
8482;SDS011;4278;42.668;23.312;2023-11-18T09:15:50;3.73;;;2.37;;
8482;SDS011;4278;42.668;23.312;2023-11-18T09:18:17;4.17;;;2.53;;
8482;SDS011;4278;42.668;23.312;2023-11-18T09:20:46;5.53;;;2.73;;
8482;SDS011;4278;42.668;23.312;2023-11-18T09:23:13;3.37;;;2.23;;
8482;SDS011;4278;42.668;23.312;2023-11-18T09:25:43;4.07;;;2.73;;
8482;SDS011;4278;42.668;23.312;2023-11-18T09:28:13;7.27;;;3.73;;
8482;SDS011;4278;42.668;23.312;2023-11-18T09:30:41;5.73;;;2.90;;
8482;SDS011;4278;42.668;23.312;2023-11-18T09:33:15;4.60;;;2.77;;
8482;SDS011;4278;42.668;23.312;2023-11-18T09:35:51;3.70;;;2.17;;
8482;SDS011;4278;42.668;23.312;2023-11-18T09:38:23;4.77;;;2.60;;
8482;SDS011;4278;42.668;23.312;2023-11-18T09:40:54;5.47;;;3.03;;
8482;SDS011;4278;42.668;23.312;2023-11-18T09:43:21;6.23;;;2.93;;
8482;SDS011;4278;42.668;23.312;2023-11-18T09:45:54;3.93;;;2.30;;
8482;SDS011;4278;42.668;23.312;2023-11-18T09:48:21;4.23;;;2.30;;
8482;SDS011;4278;42.668;23.312;2023-11-18T09:50:51;4.60;;;2.87;;
8482;SDS011;4278;42.668;23.312;2023-11-18T09:53:19;6.13;;;2.27;;
8482;SDS011;4278;42.668;23.312;2023-11-18T09:55:56;3.23;;;2.30;;
8482;SDS011;4278;42.668;23.312;2023-11-18T09:58:36;2.27;;;2.07;;
8482;SDS011;4278;42.668;23.312;2023-11-18T10:01:14;2.73;;;2.00;;
8482;SDS011;4278;42.668;23.312;2023-11-18T10:03:45;3.17;;;2.07;;
8482;SDS011;4278;42.668;23.312;2023-11-18T10:06:12;3.33;;;2.90;;
8482;SDS011;4278;42.668;23.312;2023-11-18T10:08:40;4.00;;;2.27;;
8482;SDS011;4278;42.668;23.312;2023-11-18T10:11:19;3.00;;;2.47;;
8482;SDS011;4278;42.668;23.312;2023-11-18T10:13:47;3.17;;;2.17;;
8482;SDS011;4278;42.668;23.312;2023-11-18T10:16:14;2.13;;;1.77;;
8482;SDS011;4278;42.668;23.312;2023-11-18T10:18:43;2.20;;;2.00;;
8482;SDS011;4278;42.668;23.312;2023-11-18T10:21:14;6.13;;;1.83;;
8482;SDS011;4278;42.668;23.312;2023-11-18T10:23:49;2.70;;;2.20;;
8482;SDS011;4278;42.668;23.312;2023-11-18T10:26:26;2.30;;;1.73;;
8482;SDS011;4278;42.668;23.312;2023-11-18T10:28:53;1.90;;;1.77;;
8482;SDS011;4278;42.668;23.312;2023-11-18T10:31:20;2.77;;;2.20;;
8482;SDS011;4278;42.668;23.312;2023-11-18T10:33:49;2.23;;;1.93;;
8482;SDS011;4278;42.668;23.312;2023-11-18T10:36:17;3.43;;;2.70;;
8482;SDS011;4278;42.668;23.312;2023-11-18T10:38:47;3.07;;;2.20;;
8482;SDS011;4278;42.668;23.312;2023-11-18T10:41:17;2.80;;;2.20;;
8482;SDS011;4278;42.668;23.312;2023-11-18T10:43:46;2.20;;;1.77;;
8482;SDS011;4278;42.668;23.312;2023-11-18T10:46:14;2.10;;;1.90;;
8482;SDS011;4278;42.668;23.312;2023-11-18T10:48:42;1.80;;;1.40;;
8482;SDS011;4278;42.668;23.312;2023-11-18T10:51:13;1.50;;;1.40;;
8482;SDS011;4278;42.668;23.312;2023-11-18T10:53:41;1.27;;;1.17;;
8482;SDS011;4278;42.668;23.312;2023-11-18T10:56:18;4.47;;;2.93;;
8482;SDS011;4278;42.668;23.312;2023-11-18T10:58:53;1.60;;;1.50;;
8482;SDS011;4278;42.668;23.312;2023-11-18T11:01:29;2.40;;;1.73;;
8482;SDS011;4278;42.668;23.312;2023-11-18T11:03:57;1.53;;;1.43;;
8482;SDS011;4278;42.668;23.312;2023-11-18T11:06:29;1.50;;;1.27;;
8482;SDS011;4278;42.668;23.312;2023-11-18T11:08:58;2.20;;;1.67;;
8482;SDS011;4278;42.668;23.312;2023-11-18T11:11:26;1.80;;;1.70;;
8482;SDS011;4278;42.668;23.312;2023-11-18T11:14:04;2.00;;;1.63;;
8482;SDS011;4278;42.668;23.312;2023-11-18T11:16:33;1.77;;;1.67;;
8482;SDS011;4278;42.668;23.312;2023-11-18T11:19:08;1.83;;;1.60;;
8482;SDS011;4278;42.668;23.312;2023-11-18T11:21:52;1.80;;;1.70;;
8482;SDS011;4278;42.668;23.312;2023-11-18T11:24:28;1.60;;;1.50;;
8482;SDS011;4278;42.668;23.312;2023-11-18T11:27:17;1.93;;;1.37;;
8482;SDS011;4278;42.668;23.312;2023-11-18T11:29:57;1.93;;;1.40;;
8482;SDS011;4278;42.668;23.312;2023-11-18T11:32:35;1.73;;;1.63;;
8482;SDS011;4278;42.668;23.312;2023-11-18T11:35:14;2.00;;;1.70;;
8482;SDS011;4278;42.668;23.312;2023-11-18T11:37:49;2.40;;;2.20;;
8482;SDS011;4278;42.668;23.312;2023-11-18T11:40:21;1.57;;;1.47;;
8482;SDS011;4278;42.668;23.312;2023-11-18T11:42:50;2.23;;;1.90;;
8482;SDS011;4278;42.668;23.312;2023-11-18T11:45:31;1.80;;;1.70;;
8482;SDS011;4278;42.668;23.312;2023-11-18T11:48:20;2.87;;;2.03;;
8482;SDS011;4278;42.668;23.312;2023-11-18T11:51:03;2.60;;;2.37;;
8482;SDS011;4278;42.668;23.312;2023-11-18T11:53:40;3.50;;;1.80;;
8482;SDS011;4278;42.668;23.312;2023-11-18T11:56:11;1.80;;;1.67;;
8482;SDS011;4278;42.668;23.312;2023-11-18T11:58:45;2.77;;;1.73;;
8482;SDS011;4278;42.668;23.312;2023-11-18T12:01:21;1.60;;;1.50;;
8482;SDS011;4278;42.668;23.312;2023-11-18T12:03:56;1.77;;;1.67;;
8482;SDS011;4278;42.668;23.312;2023-11-18T12:06:23;1.50;;;1.40;;
8482;SDS011;4278;42.668;23.312;2023-11-18T12:08:51;1.67;;;1.57;;
8482;SDS011;4278;42.668;23.312;2023-11-18T12:11:20;2.57;;;1.60;;
8482;SDS011;4278;42.668;23.312;2023-11-18T12:14:03;1.63;;;1.53;;
8482;SDS011;4278;42.668;23.312;2023-11-18T12:19:36;1.50;;;1.40;;
8482;SDS011;4278;42.668;23.312;2023-11-18T12:22:12;2.03;;;1.83;;
8482;SDS011;4278;42.668;23.312;2023-11-18T12:24:44;2.33;;;1.77;;
8482;SDS011;4278;42.668;23.312;2023-11-18T12:33:09;2.57;;;1.90;;
8482;SDS011;4278;42.668;23.312;2023-11-18T12:35:48;1.70;;;1.57;;
8482;SDS011;4278;42.668;23.312;2023-11-18T12:42:01;2.00;;;1.57;;
8482;SDS011;4278;42.668;23.312;2023-11-18T12:44:35;1.83;;;1.73;;
8482;SDS011;4278;42.668;23.312;2023-11-18T12:47:05;1.63;;;1.53;;
8482;SDS011;4278;42.668;23.312;2023-11-18T12:49:41;3.57;;;2.10;;
8482;SDS011;4278;42.668;23.312;2023-11-18T12:52:08;6.20;;;1.97;;
8482;SDS011;4278;42.668;23.312;2023-11-18T12:54:36;1.80;;;1.70;;
8482;SDS011;4278;42.668;23.312;2023-11-18T12:57:08;1.77;;;1.67;;
8482;SDS011;4278;42.668;23.312;2023-11-18T12:59:39;1.60;;;1.50;;
8482;SDS011;4278;42.668;23.312;2023-11-18T13:02:06;2.03;;;1.83;;
8482;SDS011;4278;42.668;23.312;2023-11-18T13:04:38;1.70;;;1.60;;
8482;SDS011;4278;42.668;23.312;2023-11-18T13:07:07;1.60;;;1.50;;
8482;SDS011;4278;42.668;23.312;2023-11-18T13:09:36;1.90;;;1.80;;
8482;SDS011;4278;42.668;23.312;2023-11-18T13:12:06;4.53;;;2.00;;
8482;SDS011;4278;42.668;23.312;2023-11-18T13:14:34;2.57;;;2.20;;
8482;SDS011;4278;42.668;23.312;2023-11-18T13:17:02;1.63;;;1.50;;
8482;SDS011;4278;42.668;23.312;2023-11-18T13:19:31;2.40;;;2.20;;
8482;SDS011;4278;42.668;23.312;2023-11-18T13:22:01;3.67;;;2.00;;
8482;SDS011;4278;42.668;23.312;2023-11-18T13:24:29;2.07;;;1.80;;
8482;SDS011;4278;42.668;23.312;2023-11-18T13:26:56;2.93;;;2.73;;
8482;SDS011;4278;42.668;23.312;2023-11-18T13:29:28;2.50;;;2.30;;
8482;SDS011;4278;42.668;23.312;2023-11-18T13:31:56;2.30;;;2.10;;
8482;SDS011;4278;42.668;23.312;2023-11-18T13:34:23;2.50;;;2.17;;
8482;SDS011;4278;42.668;23.312;2023-11-18T13:36:52;2.77;;;2.17;;
8482;SDS011;4278;42.668;23.312;2023-11-18T13:39:21;3.60;;;2.60;;
8482;SDS011;4278;42.668;23.312;2023-11-18T13:41:48;4.33;;;2.70;;
8482;SDS011;4278;42.668;23.312;2023-11-18T13:47:04;2.67;;;2.43;;
8482;SDS011;4278;42.668;23.312;2023-11-18T13:49:31;2.57;;;2.37;;
8482;SDS011;4278;42.668;23.312;2023-11-18T13:51:58;2.50;;;2.30;;
8482;SDS011;4278;42.668;23.312;2023-11-18T13:54:28;2.17;;;1.87;;
8482;SDS011;4278;42.668;23.312;2023-11-18T13:56:55;4.20;;;3.40;;
8482;SDS011;4278;42.668;23.312;2023-11-18T13:59:24;3.03;;;2.70;;
8482;SDS011;4278;42.668;23.312;2023-11-18T14:01:51;3.50;;;2.47;;
8482;SDS011;4278;42.668;23.312;2023-11-18T14:04:22;4.23;;;2.77;;
8482;SDS011;4278;42.668;23.312;2023-11-18T14:06:50;3.20;;;2.40;;
8482;SDS011;4278;42.668;23.312;2023-11-18T14:09:18;3.07;;;2.30;;
8482;SDS011;4278;42.668;23.312;2023-11-18T14:11:47;4.10;;;2.23;;
8482;SDS011;4278;42.668;23.312;2023-11-18T14:14:14;4.07;;;2.73;;
8482;SDS011;4278;42.668;23.312;2023-11-18T14:16:42;4.13;;;2.87;;
8482;SDS011;4278;42.668;23.312;2023-11-18T14:19:09;4.47;;;2.80;;
8482;SDS011;4278;42.668;23.312;2023-11-18T14:21:38;3.97;;;2.37;;
8482;SDS011;4278;42.668;23.312;2023-11-18T14:24:06;3.00;;;2.63;;
8482;SDS011;4278;42.668;23.312;2023-11-18T14:26:33;3.27;;;2.77;;
8482;SDS011;4278;42.668;23.312;2023-11-18T14:29:02;3.90;;;3.17;;
8482;SDS011;4278;42.668;23.312;2023-11-18T14:31:29;6.33;;;2.87;;
8482;SDS011;4278;42.668;23.312;2023-11-18T14:33:56;6.30;;;2.50;;
8482;SDS011;4278;42.668;23.312;2023-11-18T14:36:24;6.53;;;3.20;;
8482;SDS011;4278;42.668;23.312;2023-11-18T14:38:51;2.93;;;2.63;;
8482;SDS011;4278;42.668;23.312;2023-11-18T14:41:18;2.93;;;2.73;;
8482;SDS011;4278;42.668;23.312;2023-11-18T14:43:49;4.73;;;3.30;;
8482;SDS011;4278;42.668;23.312;2023-11-18T14:46:18;3.03;;;2.53;;
8482;SDS011;4278;42.668;23.312;2023-11-18T14:48:45;3.20;;;2.73;;
8482;SDS011;4278;42.668;23.312;2023-11-18T14:51:11;3.13;;;2.60;;
8482;SDS011;4278;42.668;23.312;2023-11-18T14:53:38;2.60;;;2.20;;
8482;SDS011;4278;42.668;23.312;2023-11-18T14:56:06;2.73;;;2.30;;
8482;SDS011;4278;42.668;23.312;2023-11-18T14:58:34;2.70;;;2.47;;
8482;SDS011;4278;42.668;23.312;2023-11-18T15:01:00;2.60;;;2.23;;
8482;SDS011;4278;42.668;23.312;2023-11-18T15:03:29;2.10;;;1.90;;
8482;SDS011;4278;42.668;23.312;2023-11-18T15:05:56;2.77;;;2.40;;
8482;SDS011;4278;42.668;23.312;2023-11-18T15:08:23;2.77;;;2.17;;
8482;SDS011;4278;42.668;23.312;2023-11-18T15:10:50;3.00;;;2.67;;
8482;SDS011;4278;42.668;23.312;2023-11-18T15:13:17;2.83;;;2.23;;
8482;SDS011;4278;42.668;23.312;2023-11-18T15:15:44;5.13;;;2.50;;
8482;SDS011;4278;42.668;23.312;2023-11-18T15:18:13;2.20;;;2.00;;
8482;SDS011;4278;42.668;23.312;2023-11-18T15:20:43;2.77;;;2.10;;
8482;SDS011;4278;42.668;23.312;2023-11-18T15:23:10;2.93;;;2.43;;
8482;SDS011;4278;42.668;23.312;2023-11-18T15:25:38;3.07;;;1.90;;
8482;SDS011;4278;42.668;23.312;2023-11-18T15:28:05;3.60;;;2.27;;